sensor_id;sensor_type;location;lat;lon;timestamp;temperature;humidity
15574;DHT22;7888;46.748;8.102;2022-08-14T00:00:41;23.30;36.80
15574;DHT22;7888;46.748;8.102;2022-08-14T00:05:46;23.20;37.30
15574;DHT22;7888;46.748;8.102;2022-08-14T00:08:12;23.20;37.00
15574;DHT22;7888;46.748;8.102;2022-08-14T00:10:38;23.10;37.00
15574;DHT22;7888;46.748;8.102;2022-08-14T00:13:04;23.10;37.10
15574;DHT22;7888;46.748;8.102;2022-08-14T00:15:34;23.10;37.10
15574;DHT22;7888;46.748;8.102;2022-08-14T00:18:03;23.10;37.40
15574;DHT22;7888;46.748;8.102;2022-08-14T00:20:33;23.10;37.30
15574;DHT22;7888;46.748;8.102;2022-08-14T00:23:00;23.00;37.30
15574;DHT22;7888;46.748;8.102;2022-08-14T00:25:27;23.00;37.40
15574;DHT22;7888;46.748;8.102;2022-08-14T00:27:54;23.00;37.50
15574;DHT22;7888;46.748;8.102;2022-08-14T00:30:20;22.90;37.60
15574;DHT22;7888;46.748;8.102;2022-08-14T00:32:47;22.90;37.70
15574;DHT22;7888;46.748;8.102;2022-08-14T00:35:13;22.90;37.60
15574;DHT22;7888;46.748;8.102;2022-08-14T00:37:44;22.90;37.80
15574;DHT22;7888;46.748;8.102;2022-08-14T00:40:13;22.80;38.00
15574;DHT22;7888;46.748;8.102;2022-08-14T00:42:42;22.80;37.90
15574;DHT22;7888;46.748;8.102;2022-08-14T00:45:10;22.80;37.90
15574;DHT22;7888;46.748;8.102;2022-08-14T00:47:38;22.80;37.90
15574;DHT22;7888;46.748;8.102;2022-08-14T00:50:06;22.70;37.90
15574;DHT22;7888;46.748;8.102;2022-08-14T00:52:35;22.70;38.00
15574;DHT22;7888;46.748;8.102;2022-08-14T00:55:05;22.70;38.00
15574;DHT22;7888;46.748;8.102;2022-08-14T00:57:33;22.60;38.10
15574;DHT22;7888;46.748;8.102;2022-08-14T01:00:03;22.60;38.00
15574;DHT22;7888;46.748;8.102;2022-08-14T01:02:32;22.60;38.20
15574;DHT22;7888;46.748;8.102;2022-08-14T01:05:00;22.60;38.00
15574;DHT22;7888;46.748;8.102;2022-08-14T01:07:32;22.50;38.10
15574;DHT22;7888;46.748;8.102;2022-08-14T01:10:01;22.50;38.20
15574;DHT22;7888;46.748;8.102;2022-08-14T01:12:32;22.50;38.30
15574;DHT22;7888;46.748;8.102;2022-08-14T01:14:59;22.40;38.20
15574;DHT22;7888;46.748;8.102;2022-08-14T01:17:29;22.40;38.30
15574;DHT22;7888;46.748;8.102;2022-08-14T01:20:15;22.40;38.40
15574;DHT22;7888;46.748;8.102;2022-08-14T01:22:59;22.40;38.10
15574;DHT22;7888;46.748;8.102;2022-08-14T01:25:25;22.40;38.30
15574;DHT22;7888;46.748;8.102;2022-08-14T01:27:51;22.30;38.40
15574;DHT22;7888;46.748;8.102;2022-08-14T01:30:19;22.30;38.40
15574;DHT22;7888;46.748;8.102;2022-08-14T01:32:50;22.30;38.50
15574;DHT22;7888;46.748;8.102;2022-08-14T01:35:17;22.20;38.50
15574;DHT22;7888;46.748;8.102;2022-08-14T01:37:43;22.20;38.40
15574;DHT22;7888;46.748;8.102;2022-08-14T01:40:13;22.20;38.60
15574;DHT22;7888;46.748;8.102;2022-08-14T01:42:41;22.10;38.30
15574;DHT22;7888;46.748;8.102;2022-08-14T01:45:08;22.10;38.70
15574;DHT22;7888;46.748;8.102;2022-08-14T01:47:37;22.10;38.80
15574;DHT22;7888;46.748;8.102;2022-08-14T01:50:05;22.10;38.90
15574;DHT22;7888;46.748;8.102;2022-08-14T01:52:33;22.10;39.40
15574;DHT22;7888;46.748;8.102;2022-08-14T01:55:06;22.00;38.70
15574;DHT22;7888;46.748;8.102;2022-08-14T01:57:36;22.10;39.40
15574;DHT22;7888;46.748;8.102;2022-08-14T02:00:05;22.00;39.00
15574;DHT22;7888;46.748;8.102;2022-08-14T02:02:43;22.00;39.00
15574;DHT22;7888;46.748;8.102;2022-08-14T02:05:12;22.00;38.90
15574;DHT22;7888;46.748;8.102;2022-08-14T02:07:40;21.90;39.10
15574;DHT22;7888;46.748;8.102;2022-08-14T02:10:11;22.00;39.10
15574;DHT22;7888;46.748;8.102;2022-08-14T02:12:38;21.90;39.30
15574;DHT22;7888;46.748;8.102;2022-08-14T02:15:06;21.90;39.10
15574;DHT22;7888;46.748;8.102;2022-08-14T02:17:34;21.80;39.00
15574;DHT22;7888;46.748;8.102;2022-08-14T02:20:00;21.80;39.00
15574;DHT22;7888;46.748;8.102;2022-08-14T02:22:26;21.80;39.10
15574;DHT22;7888;46.748;8.102;2022-08-14T02:24:52;21.80;39.20
15574;DHT22;7888;46.748;8.102;2022-08-14T02:27:18;21.80;39.20
15574;DHT22;7888;46.748;8.102;2022-08-14T02:29:45;21.70;39.40
15574;DHT22;7888;46.748;8.102;2022-08-14T02:32:12;21.70;39.20
15574;DHT22;7888;46.748;8.102;2022-08-14T02:34:41;21.70;39.50
15574;DHT22;7888;46.748;8.102;2022-08-14T02:37:09;21.70;39.50
15574;DHT22;7888;46.748;8.102;2022-08-14T02:39:42;21.70;39.50
15574;DHT22;7888;46.748;8.102;2022-08-14T02:42:11;21.60;39.90
15574;DHT22;7888;46.748;8.102;2022-08-14T02:44:41;21.60;39.50
15574;DHT22;7888;46.748;8.102;2022-08-14T02:47:10;21.50;39.50
15574;DHT22;7888;46.748;8.102;2022-08-14T02:49:36;21.50;39.70
15574;DHT22;7888;46.748;8.102;2022-08-14T02:52:03;21.50;39.60
15574;DHT22;7888;46.748;8.102;2022-08-14T02:54:32;21.50;39.60
15574;DHT22;7888;46.748;8.102;2022-08-14T02:57:00;21.40;39.50
15574;DHT22;7888;46.748;8.102;2022-08-14T02:59:31;21.40;39.50
15574;DHT22;7888;46.748;8.102;2022-08-14T03:01:59;21.40;39.60
15574;DHT22;7888;46.748;8.102;2022-08-14T03:04:25;21.30;39.70
15574;DHT22;7888;46.748;8.102;2022-08-14T03:06:52;21.40;39.70
15574;DHT22;7888;46.748;8.102;2022-08-14T03:09:19;21.30;39.80
15574;DHT22;7888;46.748;8.102;2022-08-14T03:11:44;21.30;40.00
15574;DHT22;7888;46.748;8.102;2022-08-14T03:14:11;21.20;40.00
15574;DHT22;7888;46.748;8.102;2022-08-14T03:16:38;21.20;40.00
15574;DHT22;7888;46.748;8.102;2022-08-14T03:19:07;21.20;40.20
15574;DHT22;7888;46.748;8.102;2022-08-14T03:21:35;21.10;40.20
15574;DHT22;7888;46.748;8.102;2022-08-14T03:24:02;21.10;40.20
15574;DHT22;7888;46.748;8.102;2022-08-14T03:26:32;21.10;40.10
15574;DHT22;7888;46.748;8.102;2022-08-14T03:28:58;21.10;40.20
15574;DHT22;7888;46.748;8.102;2022-08-14T03:31:25;21.00;40.30
15574;DHT22;7888;46.748;8.102;2022-08-14T03:33:51;21.00;40.20
15574;DHT22;7888;46.748;8.102;2022-08-14T03:36:18;21.00;40.30
15574;DHT22;7888;46.748;8.102;2022-08-14T03:38:47;21.00;40.40
15574;DHT22;7888;46.748;8.102;2022-08-14T03:41:21;20.90;40.40
15574;DHT22;7888;46.748;8.102;2022-08-14T03:43:51;20.90;40.10
15574;DHT22;7888;46.748;8.102;2022-08-14T03:46:22;20.90;40.50
15574;DHT22;7888;46.748;8.102;2022-08-14T03:48:51;20.90;40.20
15574;DHT22;7888;46.748;8.102;2022-08-14T03:51:19;20.80;40.30
15574;DHT22;7888;46.748;8.102;2022-08-14T03:53:45;20.80;40.30
15574;DHT22;7888;46.748;8.102;2022-08-14T03:56:14;20.80;40.40
15574;DHT22;7888;46.748;8.102;2022-08-14T03:58:46;20.80;40.40
15574;DHT22;7888;46.748;8.102;2022-08-14T04:01:16;20.80;40.40
15574;DHT22;7888;46.748;8.102;2022-08-14T04:03:46;20.80;40.40
15574;DHT22;7888;46.748;8.102;2022-08-14T04:06:13;20.80;40.20
15574;DHT22;7888;46.748;8.102;2022-08-14T04:08:41;20.80;40.40
15574;DHT22;7888;46.748;8.102;2022-08-14T04:11:08;20.80;40.60
15574;DHT22;7888;46.748;8.102;2022-08-14T04:13:37;20.80;40.50
15574;DHT22;7888;46.748;8.102;2022-08-14T04:16:16;20.70;40.50
15574;DHT22;7888;46.748;8.102;2022-08-14T04:18:47;20.70;40.50
15574;DHT22;7888;46.748;8.102;2022-08-14T04:21:16;20.80;40.60
15574;DHT22;7888;46.748;8.102;2022-08-14T04:23:44;20.70;40.50
15574;DHT22;7888;46.748;8.102;2022-08-14T04:26:13;20.70;40.50
15574;DHT22;7888;46.748;8.102;2022-08-14T04:28:43;20.70;40.50
15574;DHT22;7888;46.748;8.102;2022-08-14T04:31:09;20.70;40.30
15574;DHT22;7888;46.748;8.102;2022-08-14T04:33:36;20.60;40.40
15574;DHT22;7888;46.748;8.102;2022-08-14T04:36:03;20.70;40.50
15574;DHT22;7888;46.748;8.102;2022-08-14T04:38:29;20.60;40.80
15574;DHT22;7888;46.748;8.102;2022-08-14T04:41:13;20.60;40.80
15574;DHT22;7888;46.748;8.102;2022-08-14T04:44:18;20.60;40.90
15574;DHT22;7888;46.748;8.102;2022-08-14T04:46:45;20.60;40.80
15574;DHT22;7888;46.748;8.102;2022-08-14T04:49:30;20.50;40.80
15574;DHT22;7888;46.748;8.102;2022-08-14T04:51:56;20.50;40.80
15574;DHT22;7888;46.748;8.102;2022-08-14T04:54:23;20.50;41.00
15574;DHT22;7888;46.748;8.102;2022-08-14T04:56:52;20.50;41.20
15574;DHT22;7888;46.748;8.102;2022-08-14T04:59:21;20.50;41.10
15574;DHT22;7888;46.748;8.102;2022-08-14T05:01:48;20.50;41.10
15574;DHT22;7888;46.748;8.102;2022-08-14T05:04:14;20.50;41.20
15574;DHT22;7888;46.748;8.102;2022-08-14T05:06:40;20.50;41.00
15574;DHT22;7888;46.748;8.102;2022-08-14T05:09:06;20.50;41.00
15574;DHT22;7888;46.748;8.102;2022-08-14T05:11:32;20.50;41.20
15574;DHT22;7888;46.748;8.102;2022-08-14T05:14:01;20.50;41.20
15574;DHT22;7888;46.748;8.102;2022-08-14T05:16:27;20.50;41.20
15574;DHT22;7888;46.748;8.102;2022-08-14T05:18:56;20.50;41.20
15574;DHT22;7888;46.748;8.102;2022-08-14T05:21:22;20.50;41.10
15574;DHT22;7888;46.748;8.102;2022-08-14T05:23:48;20.50;41.20
15574;DHT22;7888;46.748;8.102;2022-08-14T05:26:16;20.50;41.90
15574;DHT22;7888;46.748;8.102;2022-08-14T05:28:46;20.50;41.30
15574;DHT22;7888;46.748;8.102;2022-08-14T05:31:13;20.50;41.60
15574;DHT22;7888;46.748;8.102;2022-08-14T05:33:44;20.50;41.60
15574;DHT22;7888;46.748;8.102;2022-08-14T05:36:11;20.50;41.70
15574;DHT22;7888;46.748;8.102;2022-08-14T05:38:43;20.60;41.80
15574;DHT22;7888;46.748;8.102;2022-08-14T05:41:16;20.60;41.90
15574;DHT22;7888;46.748;8.102;2022-08-14T05:43:45;20.60;42.00
15574;DHT22;7888;46.748;8.102;2022-08-14T05:46:14;20.60;41.60
15574;DHT22;7888;46.748;8.102;2022-08-14T05:48:51;20.60;41.40
15574;DHT22;7888;46.748;8.102;2022-08-14T05:51:20;20.60;41.50
15574;DHT22;7888;46.748;8.102;2022-08-14T05:53:48;20.70;41.40
15574;DHT22;7888;46.748;8.102;2022-08-14T05:56:14;20.70;41.70
15574;DHT22;7888;46.748;8.102;2022-08-14T05:58:40;20.70;41.70
15574;DHT22;7888;46.748;8.102;2022-08-14T06:01:06;20.70;41.60
15574;DHT22;7888;46.748;8.102;2022-08-14T06:03:34;20.80;41.70
15574;DHT22;7888;46.748;8.102;2022-08-14T06:06:00;20.80;41.90
15574;DHT22;7888;46.748;8.102;2022-08-14T06:08:29;20.80;41.80
15574;DHT22;7888;46.748;8.102;2022-08-14T06:10:57;20.90;41.90
15574;DHT22;7888;46.748;8.102;2022-08-14T06:13:31;21.00;42.00
15574;DHT22;7888;46.748;8.102;2022-08-14T06:15:59;21.00;42.00
15574;DHT22;7888;46.748;8.102;2022-08-14T06:18:25;21.20;42.10
15574;DHT22;7888;46.748;8.102;2022-08-14T06:20:51;21.20;42.10
15574;DHT22;7888;46.748;8.102;2022-08-14T06:23:18;21.30;42.10
15574;DHT22;7888;46.748;8.102;2022-08-14T06:25:44;21.40;42.10
15574;DHT22;7888;46.748;8.102;2022-08-14T06:28:18;21.50;42.10
15574;DHT22;7888;46.748;8.102;2022-08-14T06:30:46;21.60;42.30
15574;DHT22;7888;46.748;8.102;2022-08-14T06:33:12;21.70;41.90
15574;DHT22;7888;46.748;8.102;2022-08-14T06:35:39;21.90;41.70
15574;DHT22;7888;46.748;8.102;2022-08-14T06:38:05;22.00;41.80
15574;DHT22;7888;46.748;8.102;2022-08-14T06:40:35;22.20;42.00
15574;DHT22;7888;46.748;8.102;2022-08-14T06:43:07;22.30;42.20
15574;DHT22;7888;46.748;8.102;2022-08-14T06:45:37;22.50;42.10
15574;DHT22;7888;46.748;8.102;2022-08-14T06:50:42;22.70;41.40
15574;DHT22;7888;46.748;8.102;2022-08-14T06:53:09;22.90;41.30
15574;DHT22;7888;46.748;8.102;2022-08-14T06:55:36;23.00;41.20
15574;DHT22;7888;46.748;8.102;2022-08-14T06:58:03;23.20;41.30
15574;DHT22;7888;46.748;8.102;2022-08-14T07:00:30;23.30;41.30
15574;DHT22;7888;46.748;8.102;2022-08-14T07:02:56;23.40;41.00
15574;DHT22;7888;46.748;8.102;2022-08-14T07:05:40;23.60;40.50
15574;DHT22;7888;46.748;8.102;2022-08-14T07:08:26;23.80;40.20
15574;DHT22;7888;46.748;8.102;2022-08-14T07:10:56;23.90;40.40
15574;DHT22;7888;46.748;8.102;2022-08-14T07:13:25;24.00;40.30
15574;DHT22;7888;46.748;8.102;2022-08-14T07:15:54;24.10;40.20
15574;DHT22;7888;46.748;8.102;2022-08-14T07:18:29;24.20;40.30
15574;DHT22;7888;46.748;8.102;2022-08-14T07:20:58;24.30;40.20
15574;DHT22;7888;46.748;8.102;2022-08-14T07:23:26;24.40;40.20
15574;DHT22;7888;46.748;8.102;2022-08-14T07:25:54;24.50;40.10
15574;DHT22;7888;46.748;8.102;2022-08-14T07:28:36;24.60;40.00
15574;DHT22;7888;46.748;8.102;2022-08-14T07:31:08;24.60;39.80
15574;DHT22;7888;46.748;8.102;2022-08-14T07:33:44;24.70;39.90
15574;DHT22;7888;46.748;8.102;2022-08-14T07:36:14;24.80;39.90
15574;DHT22;7888;46.748;8.102;2022-08-14T07:38:41;24.90;39.60
15574;DHT22;7888;46.748;8.102;2022-08-14T07:41:09;25.00;39.00
15574;DHT22;7888;46.748;8.102;2022-08-14T07:43:38;25.10;38.80
15574;DHT22;7888;46.748;8.102;2022-08-14T07:46:05;25.20;38.80
15574;DHT22;7888;46.748;8.102;2022-08-14T07:48:39;25.30;38.70
15574;DHT22;7888;46.748;8.102;2022-08-14T07:51:06;25.40;38.60
15574;DHT22;7888;46.748;8.102;2022-08-14T07:53:32;25.60;38.30
15574;DHT22;7888;46.748;8.102;2022-08-14T07:55:58;25.70;38.20
15574;DHT22;7888;46.748;8.102;2022-08-14T07:58:24;25.80;36.90
15574;DHT22;7888;46.748;8.102;2022-08-14T08:00:54;25.90;36.80
15574;DHT22;7888;46.748;8.102;2022-08-14T08:03:22;26.00;36.20
15574;DHT22;7888;46.748;8.102;2022-08-14T08:05:51;26.20;36.40
15574;DHT22;7888;46.748;8.102;2022-08-14T08:08:19;26.30;36.10
15574;DHT22;7888;46.748;8.102;2022-08-14T08:10:45;26.30;36.00
15574;DHT22;7888;46.748;8.102;2022-08-14T08:13:17;26.40;36.00
15574;DHT22;7888;46.748;8.102;2022-08-14T08:15:49;26.50;36.10
15574;DHT22;7888;46.748;8.102;2022-08-14T08:18:21;26.60;36.10
15574;DHT22;7888;46.748;8.102;2022-08-14T08:20:52;26.70;36.60
15574;DHT22;7888;46.748;8.102;2022-08-14T08:23:22;26.90;35.20
15574;DHT22;7888;46.748;8.102;2022-08-14T08:25:49;27.00;35.40
15574;DHT22;7888;46.748;8.102;2022-08-14T08:28:18;27.10;35.70
15574;DHT22;7888;46.748;8.102;2022-08-14T08:30:50;27.30;35.80
15574;DHT22;7888;46.748;8.102;2022-08-14T08:33:18;27.40;35.50
15574;DHT22;7888;46.748;8.102;2022-08-14T08:35:47;27.50;35.20
15574;DHT22;7888;46.748;8.102;2022-08-14T08:38:17;27.60;35.00
15574;DHT22;7888;46.748;8.102;2022-08-14T08:40:49;27.70;34.90
15574;DHT22;7888;46.748;8.102;2022-08-14T08:43:20;27.80;34.90
15574;DHT22;7888;46.748;8.102;2022-08-14T08:48:23;28.00;33.40
15574;DHT22;7888;46.748;8.102;2022-08-14T08:50:57;28.10;33.90
15574;DHT22;7888;46.748;8.102;2022-08-14T08:53:33;28.10;33.70
15574;DHT22;7888;46.748;8.102;2022-08-14T08:56:01;28.20;33.40
15574;DHT22;7888;46.748;8.102;2022-08-14T08:58:28;28.30;33.90
15574;DHT22;7888;46.748;8.102;2022-08-14T09:00:56;28.40;34.30
15574;DHT22;7888;46.748;8.102;2022-08-14T09:03:25;28.50;34.10
15574;DHT22;7888;46.748;8.102;2022-08-14T09:06:00;28.50;33.70
15574;DHT22;7888;46.748;8.102;2022-08-14T09:08:33;28.60;33.30
15574;DHT22;7888;46.748;8.102;2022-08-14T09:11:09;28.70;33.20
15574;DHT22;7888;46.748;8.102;2022-08-14T09:13:36;28.70;32.70
15574;DHT22;7888;46.748;8.102;2022-08-14T09:16:02;28.80;33.00
15574;DHT22;7888;46.748;8.102;2022-08-14T09:18:28;28.90;32.80
15574;DHT22;7888;46.748;8.102;2022-08-14T09:20:56;29.00;32.50
15574;DHT22;7888;46.748;8.102;2022-08-14T09:23:22;29.00;32.30
15574;DHT22;7888;46.748;8.102;2022-08-14T09:25:50;29.10;31.90
15574;DHT22;7888;46.748;8.102;2022-08-14T09:28:18;29.20;31.50
15574;DHT22;7888;46.748;8.102;2022-08-14T09:30:49;29.20;31.70
15574;DHT22;7888;46.748;8.102;2022-08-14T09:34:00;29.30;31.50
15574;DHT22;7888;46.748;8.102;2022-08-14T09:39:50;29.50;31.70
15574;DHT22;7888;46.748;8.102;2022-08-14T09:45:17;29.60;31.60
15574;DHT22;7888;46.748;8.102;2022-08-14T09:47:52;29.60;31.90
15574;DHT22;7888;46.748;8.102;2022-08-14T09:53:05;29.80;32.10
15574;DHT22;7888;46.748;8.102;2022-08-14T09:55:34;29.90;32.30
15574;DHT22;7888;46.748;8.102;2022-08-14T09:58:15;30.00;32.50
15574;DHT22;7888;46.748;8.102;2022-08-14T10:03:32;30.10;32.60
15574;DHT22;7888;46.748;8.102;2022-08-14T10:08:47;30.10;32.70
15574;DHT22;7888;46.748;8.102;2022-08-14T10:11:24;30.20;33.40
15574;DHT22;7888;46.748;8.102;2022-08-14T10:13:57;30.20;32.60
15574;DHT22;7888;46.748;8.102;2022-08-14T10:16:26;30.20;32.30
15574;DHT22;7888;46.748;8.102;2022-08-14T10:19:12;30.20;32.00
15574;DHT22;7888;46.748;8.102;2022-08-14T10:21:42;30.10;31.70
15574;DHT22;7888;46.748;8.102;2022-08-14T10:24:22;30.10;31.70
15574;DHT22;7888;46.748;8.102;2022-08-14T10:27:14;30.10;32.00
15574;DHT22;7888;46.748;8.102;2022-08-14T10:29:47;30.10;31.70
15574;DHT22;7888;46.748;8.102;2022-08-14T10:32:16;30.10;31.60
15574;DHT22;7888;46.748;8.102;2022-08-14T10:34:42;30.20;31.90
15574;DHT22;7888;46.748;8.102;2022-08-14T10:37:10;30.30;32.00
15574;DHT22;7888;46.748;8.102;2022-08-14T10:39:41;30.30;31.80
15574;DHT22;7888;46.748;8.102;2022-08-14T10:42:22;30.40;31.40
15574;DHT22;7888;46.748;8.102;2022-08-14T10:44:48;30.40;31.70
15574;DHT22;7888;46.748;8.102;2022-08-14T10:47:16;30.50;31.60
15574;DHT22;7888;46.748;8.102;2022-08-14T10:49:56;30.60;31.50
15574;DHT22;7888;46.748;8.102;2022-08-14T10:52:25;30.70;32.00
15574;DHT22;7888;46.748;8.102;2022-08-14T10:57:33;30.70;31.00
15574;DHT22;7888;46.748;8.102;2022-08-14T11:00:14;30.80;31.00
15574;DHT22;7888;46.748;8.102;2022-08-14T11:02:43;30.80;30.60
15574;DHT22;7888;46.748;8.102;2022-08-14T11:05:11;30.80;30.50
15574;DHT22;7888;46.748;8.102;2022-08-14T11:10:23;30.80;30.10
15574;DHT22;7888;46.748;8.102;2022-08-14T11:12:54;30.80;30.40
15574;DHT22;7888;46.748;8.102;2022-08-14T11:15:24;30.80;30.60
15574;DHT22;7888;46.748;8.102;2022-08-14T11:17:53;30.80;30.70
15574;DHT22;7888;46.748;8.102;2022-08-14T11:20:23;30.90;30.50
15574;DHT22;7888;46.748;8.102;2022-08-14T11:22:52;31.00;30.60
15574;DHT22;7888;46.748;8.102;2022-08-14T11:25:21;31.10;30.80
15574;DHT22;7888;46.748;8.102;2022-08-14T11:27:51;31.10;31.40
15574;DHT22;7888;46.748;8.102;2022-08-14T11:30:20;31.10;30.50
15574;DHT22;7888;46.748;8.102;2022-08-14T11:32:50;31.20;30.50
15574;DHT22;7888;46.748;8.102;2022-08-14T11:35:21;31.20;30.40
15574;DHT22;7888;46.748;8.102;2022-08-14T11:38:00;31.20;30.60
15574;DHT22;7888;46.748;8.102;2022-08-14T11:40:29;31.20;30.50
15574;DHT22;7888;46.748;8.102;2022-08-14T11:42:59;31.20;30.40
15574;DHT22;7888;46.748;8.102;2022-08-14T11:45:32;31.20;30.40
15574;DHT22;7888;46.748;8.102;2022-08-14T11:48:01;31.20;30.20
15574;DHT22;7888;46.748;8.102;2022-08-14T11:50:39;31.20;30.90
15574;DHT22;7888;46.748;8.102;2022-08-14T11:53:06;31.30;30.30
15574;DHT22;7888;46.748;8.102;2022-08-14T11:56:03;31.30;30.40
15574;DHT22;7888;46.748;8.102;2022-08-14T11:58:33;31.40;30.40
15574;DHT22;7888;46.748;8.102;2022-08-14T12:01:03;31.40;30.60
15574;DHT22;7888;46.748;8.102;2022-08-14T12:03:49;31.50;30.70
15574;DHT22;7888;46.748;8.102;2022-08-14T12:06:17;31.70;30.30
15574;DHT22;7888;46.748;8.102;2022-08-14T12:08:45;31.70;30.20
15574;DHT22;7888;46.748;8.102;2022-08-14T12:11:13;31.80;30.50
15574;DHT22;7888;46.748;8.102;2022-08-14T12:13:42;31.80;30.60
15574;DHT22;7888;46.748;8.102;2022-08-14T12:16:12;31.90;30.50
15574;DHT22;7888;46.748;8.102;2022-08-14T12:18:43;32.00;30.60
15574;DHT22;7888;46.748;8.102;2022-08-14T12:21:21;32.00;30.50
15574;DHT22;7888;46.748;8.102;2022-08-14T12:24:09;32.00;30.30
15574;DHT22;7888;46.748;8.102;2022-08-14T12:26:35;32.10;29.90
15574;DHT22;7888;46.748;8.102;2022-08-14T12:29:11;32.20;31.00
15574;DHT22;7888;46.748;8.102;2022-08-14T12:31:39;32.20;30.00
15574;DHT22;7888;46.748;8.102;2022-08-14T12:34:11;32.30;29.90
15574;DHT22;7888;46.748;8.102;2022-08-14T12:36:37;32.40;29.70
15574;DHT22;7888;46.748;8.102;2022-08-14T12:39:25;32.50;29.70
15574;DHT22;7888;46.748;8.102;2022-08-14T12:41:53;32.50;29.70
15574;DHT22;7888;46.748;8.102;2022-08-14T12:44:36;32.60;29.30
15574;DHT22;7888;46.748;8.102;2022-08-14T12:47:13;32.60;29.00
15574;DHT22;7888;46.748;8.102;2022-08-14T12:49:53;32.60;28.90
15574;DHT22;7888;46.748;8.102;2022-08-14T12:52:45;32.60;29.30
15574;DHT22;7888;46.748;8.102;2022-08-14T12:55:16;32.60;29.20
15574;DHT22;7888;46.748;8.102;2022-08-14T12:57:46;32.50;29.10
15574;DHT22;7888;46.748;8.102;2022-08-14T13:00:19;32.50;29.20
15574;DHT22;7888;46.748;8.102;2022-08-14T13:02:48;32.40;29.10
15574;DHT22;7888;46.748;8.102;2022-08-14T13:05:18;32.30;29.30
15574;DHT22;7888;46.748;8.102;2022-08-14T13:07:49;32.30;29.40
15574;DHT22;7888;46.748;8.102;2022-08-14T13:10:17;32.20;29.50
15574;DHT22;7888;46.748;8.102;2022-08-14T13:12:46;32.10;29.60
15574;DHT22;7888;46.748;8.102;2022-08-14T13:15:14;32.10;29.70
15574;DHT22;7888;46.748;8.102;2022-08-14T13:17:47;32.00;29.60
15574;DHT22;7888;46.748;8.102;2022-08-14T13:20:18;32.00;29.80
15574;DHT22;7888;46.748;8.102;2022-08-14T13:22:46;31.90;29.70
15574;DHT22;7888;46.748;8.102;2022-08-14T13:25:14;31.90;29.80
15574;DHT22;7888;46.748;8.102;2022-08-14T13:27:44;31.80;29.70
15574;DHT22;7888;46.748;8.102;2022-08-14T13:30:11;31.80;29.90
15574;DHT22;7888;46.748;8.102;2022-08-14T13:32:38;31.80;30.00
15574;DHT22;7888;46.748;8.102;2022-08-14T13:35:09;31.70;30.00
15574;DHT22;7888;46.748;8.102;2022-08-14T13:37:38;31.70;30.00
15574;DHT22;7888;46.748;8.102;2022-08-14T13:40:06;31.70;30.00
15574;DHT22;7888;46.748;8.102;2022-08-14T13:42:33;31.70;30.00
15574;DHT22;7888;46.748;8.102;2022-08-14T13:45:02;31.70;30.00
15574;DHT22;7888;46.748;8.102;2022-08-14T13:47:30;31.70;29.90
15574;DHT22;7888;46.748;8.102;2022-08-14T13:50:00;31.70;29.90
15574;DHT22;7888;46.748;8.102;2022-08-14T13:55:10;31.70;30.10
15574;DHT22;7888;46.748;8.102;2022-08-14T13:57:41;31.70;30.10
15574;DHT22;7888;46.748;8.102;2022-08-14T14:00:13;31.70;30.00
15574;DHT22;7888;46.748;8.102;2022-08-14T14:02:41;31.80;30.10
15574;DHT22;7888;46.748;8.102;2022-08-14T14:05:12;31.80;30.20
15574;DHT22;7888;46.748;8.102;2022-08-14T14:07:45;31.80;30.20
15574;DHT22;7888;46.748;8.102;2022-08-14T14:10:14;31.80;30.20
15574;DHT22;7888;46.748;8.102;2022-08-14T14:12:43;31.80;30.30
15574;DHT22;7888;46.748;8.102;2022-08-14T14:15:12;31.80;30.40
15574;DHT22;7888;46.748;8.102;2022-08-14T14:17:41;31.80;30.70
15574;DHT22;7888;46.748;8.102;2022-08-14T14:20:11;31.80;30.80
15574;DHT22;7888;46.748;8.102;2022-08-14T14:22:46;31.70;30.80
15574;DHT22;7888;46.748;8.102;2022-08-14T14:25:15;31.70;31.00
15574;DHT22;7888;46.748;8.102;2022-08-14T14:27:45;31.70;31.20
15574;DHT22;7888;46.748;8.102;2022-08-14T14:30:14;31.70;31.30
15574;DHT22;7888;46.748;8.102;2022-08-14T14:32:43;31.70;31.40
15574;DHT22;7888;46.748;8.102;2022-08-14T14:35:12;31.60;31.30
15574;DHT22;7888;46.748;8.102;2022-08-14T14:37:41;31.60;31.30
15574;DHT22;7888;46.748;8.102;2022-08-14T14:40:10;31.60;31.50
15574;DHT22;7888;46.748;8.102;2022-08-14T14:42:50;31.50;31.50
15574;DHT22;7888;46.748;8.102;2022-08-14T14:45:21;31.50;31.50
15574;DHT22;7888;46.748;8.102;2022-08-14T14:47:53;31.40;31.80
15574;DHT22;7888;46.748;8.102;2022-08-14T14:50:21;31.40;31.70
15574;DHT22;7888;46.748;8.102;2022-08-14T14:52:48;31.30;31.70
15574;DHT22;7888;46.748;8.102;2022-08-14T14:55:16;31.20;31.80
15574;DHT22;7888;46.748;8.102;2022-08-14T14:57:45;31.20;32.00
15574;DHT22;7888;46.748;8.102;2022-08-14T15:00:17;31.10;31.90
15574;DHT22;7888;46.748;8.102;2022-08-14T15:02:47;31.10;31.90
15574;DHT22;7888;46.748;8.102;2022-08-14T15:05:16;31.00;32.00
15574;DHT22;7888;46.748;8.102;2022-08-14T15:07:46;31.00;32.10
15574;DHT22;7888;46.748;8.102;2022-08-14T15:10:15;30.90;32.10
15574;DHT22;7888;46.748;8.102;2022-08-14T15:12:43;30.80;32.20
15574;DHT22;7888;46.748;8.102;2022-08-14T15:15:10;30.80;32.30
15574;DHT22;7888;46.748;8.102;2022-08-14T15:17:38;30.80;32.30
15574;DHT22;7888;46.748;8.102;2022-08-14T15:20:07;30.70;32.40
15574;DHT22;7888;46.748;8.102;2022-08-14T15:22:36;30.70;32.60
15574;DHT22;7888;46.748;8.102;2022-08-14T15:25:05;30.70;32.50
15574;DHT22;7888;46.748;8.102;2022-08-14T15:27:32;30.60;32.60
15574;DHT22;7888;46.748;8.102;2022-08-14T15:29:59;30.60;32.60
15574;DHT22;7888;46.748;8.102;2022-08-14T15:32:25;30.60;32.60
15574;DHT22;7888;46.748;8.102;2022-08-14T15:34:50;30.60;32.80
15574;DHT22;7888;46.748;8.102;2022-08-14T15:37:16;30.60;32.70
15574;DHT22;7888;46.748;8.102;2022-08-14T15:39:42;30.50;32.60
15574;DHT22;7888;46.748;8.102;2022-08-14T15:42:09;30.50;32.70
15574;DHT22;7888;46.748;8.102;2022-08-14T15:44:35;30.50;32.80
15574;DHT22;7888;46.748;8.102;2022-08-14T15:47:03;30.50;32.90
15574;DHT22;7888;46.748;8.102;2022-08-14T15:49:33;30.40;32.90
15574;DHT22;7888;46.748;8.102;2022-08-14T15:52:00;30.40;33.10
15574;DHT22;7888;46.748;8.102;2022-08-14T15:54:27;30.40;32.90
15574;DHT22;7888;46.748;8.102;2022-08-14T15:57:08;30.40;33.00
15574;DHT22;7888;46.748;8.102;2022-08-14T15:59:36;30.40;33.10
15574;DHT22;7888;46.748;8.102;2022-08-14T16:02:22;30.40;33.10
15574;DHT22;7888;46.748;8.102;2022-08-14T16:04:52;30.30;33.10
15574;DHT22;7888;46.748;8.102;2022-08-14T16:07:19;30.30;33.30
15574;DHT22;7888;46.748;8.102;2022-08-14T16:09:44;30.30;33.30
15574;DHT22;7888;46.748;8.102;2022-08-14T16:12:10;30.20;33.10
15574;DHT22;7888;46.748;8.102;2022-08-14T16:14:36;30.20;33.50
15574;DHT22;7888;46.748;8.102;2022-08-14T16:17:04;30.10;33.90
15574;DHT22;7888;46.748;8.102;2022-08-14T16:19:34;30.10;34.40
15574;DHT22;7888;46.748;8.102;2022-08-14T16:22:06;30.00;34.50
15574;DHT22;7888;46.748;8.102;2022-08-14T16:24:37;29.90;34.70
15574;DHT22;7888;46.748;8.102;2022-08-14T16:27:08;29.90;34.90
15574;DHT22;7888;46.748;8.102;2022-08-14T16:29:38;29.80;34.90
15574;DHT22;7888;46.748;8.102;2022-08-14T16:32:07;29.70;35.00